Beatty, Nevada Weather observations

Data are for observation ending at time listed.
 Day   Time    Ave.   Ave.  Ave.  Vector   Max.   Stn.    Total    Solar   Ave.  
  of    of     Air    Rel.  Wind   Wind    Wind   Baro.  Precip.   Rad.    Soil  
Year   Day     Temp.  Hum.  Speed  Dir.    Gust   Pres.                    Temp. 
2014   (PST)    F      %     mph   deg.    mph     mb.     in.     W/m2     F   
------------------------------------------------------------------------------
 209   15:00   85.2    31    9.6   214     20.1   904.0    0.00      85    90.1
 209   15:10   82.2    38    7.8   228     16.1   904.1    0.00      97    90.1
 209   15:20   81.1    41    4.5   252     10.0   903.9    0.00     151    90.1
 209   15:30   81.5    39    4.0   243      7.9   903.8    0.00     190    90.1
 209   15:40   82.1    38    3.5   258      6.4   903.7    0.00     215    90.1
 209   15:50   83.5    34    2.7   284      5.7   903.6    0.00     311    90.2
 209   16:00   85.1    31    1.5   300      4.7   903.5    0.00     323    90.2
 209   16:10   86.2    30    2.0   200      4.3   903.4    0.00     270    90.2
 209   16:20   87.4    29    0.7   119      2.0   903.2    0.00     302    90.2
 209   16:30   88.1    28    1.4    54      3.8   903.2    0.00     267    90.2
 209   16:40   88.0    28    1.9   206      4.5   903.1    0.00     229    90.3
 209   16:50   86.8    29    2.7   206      6.6   903.0    0.00     135    90.3
 209   17:00   86.3    29    2.8   212      4.7   902.9    0.00      87    90.4
 209   17:10   86.6    29    2.1   188      3.7   902.8    0.00     125    90.4
 209   17:20   87.4    28    3.1   175      6.3   902.8    0.00     130    90.4
 209   17:30   87.0    28    2.2   205      5.0   902.8    0.00      70    90.4
 209   17:40   85.8    30    2.0   290      4.0   902.9    0.00      71    90.4
 209   17:50   85.7    30    1.3   213      2.7   903.0    0.00      36    90.4
 209   18:00   85.9    29    2.3   177      3.8   903.2    0.00      12    90.4
 209   18:10   83.8    39    6.0   153     16.5   903.4    0.02       8    90.4
 209   18:20   78.2    52   10.2   100     21.9   903.9    0.02       7    90.5
 209   18:30   74.5    63    7.0    72     14.8   904.0    0.00       3    90.5
 209   18:40   72.4    72    5.4    70     12.8   904.2    0.00       1    90.5
 209   18:50   73.6    63   11.2     7     23.1   904.5    0.00       0    90.5
 209   19:00   74.2    59   11.6   359     21.3   904.8    0.00       1    90.5
 209   19:10   73.8    58    8.9   352     20.7   904.8    0.00       0    90.5
 209   19:20   73.6    59    6.8   338     17.8   904.9    0.00       0    90.5
 209   19:30   73.4    59    7.0   332     15.7   905.0    0.00       0    90.5
 209   19:40   73.2    58    5.8   344     14.8   905.1    0.00       0    90.5
 209   19:50   72.5    60    5.6   330     15.2   905.3    0.00       0    90.5
 209   20:00   72.1    61    4.4   330     12.0   905.5    0.00       0    90.5
 209   20:10   71.3    63    5.6   348     12.9   905.6    0.00       0    90.5
 209   20:20   72.3    60    4.1     0     10.2   905.6    0.00       0    90.5
 209   20:30   72.1    63    6.2     2     13.4   905.7    0.00       0    90.5
 209   20:40   71.8    64    7.0     7     12.9   905.7    0.00       0    90.4
 209   20:50   72.1    62    6.8   356     11.5   905.7    0.00       0    90.4
 209   21:00   71.9    63    5.6   358     12.2   905.6    0.00       0    90.4
 209   21:10   72.1    62    2.7   350      8.6   905.7    0.00       0    90.3
 209   21:20   72.0    64    2.8    66      7.1   905.8    0.00       0    90.3
 209   21:30   70.5    68    7.0    81     13.0   905.6    0.00       0    90.2
 209   21:40   70.2    69    6.3    79     13.4   905.6    0.00       0    90.2
 209   21:50   70.3    68    6.8    71     15.0   905.5    0.00       0    90.1
 209   22:00   70.4    68    4.1    61     10.1   905.5    0.00       0    90.1
 209   22:10   70.7    66    3.7    64     10.5   905.4    0.00       0    90.0
 209   22:20   70.6    66    6.3    79     11.0   905.4    0.00       0    90.0
 209   22:30   70.4    67    7.6    86     13.5   905.3    0.00       0    89.9
 209   22:40   70.6    66    5.2    75     11.3   905.3    0.00       0    89.9
 209   22:50   70.6    67    5.1    76     13.0   905.2    0.00       0    89.8
 209   23:00   70.4    68    3.7    73      9.1   905.0    0.00       0    89.7
 209   23:10   70.6    67    3.6    70      9.3   905.0    0.00       0    89.7
 209   23:20   70.9    66    3.5    75      7.5   904.9    0.00       0    89.6
 209   23:30   71.1    65    3.1    63      5.9   904.9    0.00       0    89.5
 209   23:40   71.2    65    3.0    61      8.3   904.7    0.00       0    89.5
 209   23:50   70.9    67    3.1     8      6.0   904.8    0.00       0    89.4
 210    0:00   71.0    66    2.4    42      4.8   904.8    0.00       0    89.3
 210    0:10   71.3    64    3.5    31      8.8   904.7    0.00       0    89.3
 210    0:20   71.5    64    3.8    21      8.5   904.7    0.00       0    89.2
 210    0:30   71.3    65    3.5   355      6.1   904.6    0.00       0    89.2
 210    0:40   71.4    64    2.4    38      5.6   904.6    0.00       0    89.1
 210    0:50   72.1    62    3.0    53      7.2   904.6    0.00       0    89.0
 210    1:00   71.8    63    3.1    34      6.6   904.6    0.00       0    89.0
 210    1:10   71.5    64    3.0    31      6.9   904.5    0.00       0    88.9
 210    1:20   71.8    63    1.9    43      5.6   904.5    0.00       0    88.8
 210    1:30   72.0    62    2.9    19      6.3   904.5    0.00       0    88.8
 210    1:40   71.8    63    2.3    69      5.3   904.4    0.00       0    88.7
 210    1:50   71.5    64    1.9    31      5.4   904.5    0.00       0    88.6
 210    2:00   71.0    66    3.3    14      7.5   904.4    0.00       0    88.6
 210    2:10   71.2    65    3.1    22      7.4   904.5    0.00       0    88.5
 210    2:20   71.1    65    2.4    84      5.9   904.5    0.00       0    88.5
 210    2:30   71.1    65    2.0    69      4.1   904.5    0.00       0    88.4
 210    2:40   71.1    64    1.3   243      3.4   904.6    0.00       0    88.4
 210    2:50   71.1    64    1.3    29      3.7   904.7    0.00       0    88.3
 210    3:00   71.2    62    3.6     4      9.0   904.8    0.00       0    88.2
 210    3:10   71.3    61    3.3   353      7.8   904.8    0.00       0    88.2
 210    3:20   71.0    61    3.8   349      8.3   904.8    0.00       0    88.1
 210    3:30   70.8    62    4.1   354     10.5   904.8    0.00       0    88.1
 210    3:40   70.6    62    4.5   358     10.1   904.8    0.00       0    88.0
 210    3:50   70.7    62    5.3   359     12.6   904.8    0.00       0    88.0
 210    4:00   70.5    63    4.3     0      8.8   904.8    0.00       0    87.9
 210    4:10   70.3    63    4.8     2      8.2   904.7    0.00       0    87.9
 210    4:20   70.2    63    4.9   358      8.4   904.7    0.00       0    87.8
 210    4:30   69.9    63    4.3     4      8.6   904.7    0.00       0    87.7
 210    4:40   70.0    63    4.7    12      9.0   904.8    0.00       0    87.7
 210    4:50   70.0    63    4.3    12      7.6   904.8    0.00       0    87.6
 210    5:00   69.9    62    5.4    10      9.6   904.8    0.00       0    87.6
 210    5:10   70.0    62    5.6     9      9.2   904.8    0.00       3    87.5
 210    5:20   69.8    63    6.1     6     10.4   904.8    0.00       6    87.5
 210    5:30   69.7    63    5.6     8      9.1   904.9    0.00       9    87.4
 210    5:40   69.7    65    3.5    34      8.5   904.9    0.00      47    87.4
 210    5:50   69.6    67    3.7    45      7.7   904.9    0.00      90    87.3
 210    6:00   70.7    64    3.0    31      7.3   904.9    0.00     118    87.3
 210    6:10   72.1    59    5.3    10     10.7   905.0    0.00     145    87.2
 210    6:20   72.3    58    8.2     7     11.8   905.0    0.00     172    87.2
 210    6:30   72.6    58    7.5     4     12.0   905.1    0.00     150    87.1
 210    6:40   73.1    57    5.8     9      9.9   905.1    0.00      79    87.1
 210    6:50   73.0    57    7.2     9     13.2   905.1    0.00      45    87.0
 210    7:00   73.3    57    5.8    11     14.0   905.1    0.00      58    87.0
 210    7:10   73.5    56    6.2     7     12.3   905.0    0.00      33    86.9
 210    7:20   73.7    56    7.6     9     13.1   905.1    0.00      33    86.9
 210    7:30   74.1    55    5.2    13      9.1   905.1    0.00      43    86.8
 210    7:40   74.5    53    6.2     3     11.2   905.1    0.00     151    86.8
 210    7:50   75.6    51    4.1    36      8.7   905.1    0.00     388    86.8
 210    8:00   76.7    49    3.6    26      7.5   905.1    0.00     434    86.7
 210    8:10   77.5    47    4.8    18     10.5   905.1    0.00     459    86.6
 210    8:20   78.5    46    3.6    29      9.2   905.1    0.00     483    86.6
 210    8:30   79.2    44    3.8    38      8.0   905.1    0.00     506    86.6
 210    8:40   79.9    44    3.3    46      7.1   904.9    0.00     527    86.5
 210    8:50   79.9    43    4.8    25     10.9   905.0    0.00     549    86.5
 210    9:00   79.7    44    4.3     6     10.2   905.0    0.00     570    86.4
 210    9:10   80.6    43    3.5   356      6.9   905.0    0.00     419    86.3
 210    9:20   80.3    43    3.8   355     10.2   905.0    0.00     424    86.3
 210    9:30   81.6    41    3.0    41      7.7   904.9    0.00     651    86.3
 210    9:40   83.2    39    2.1    17      5.8   904.8    0.00     675    86.3
 210    9:50   83.0    39    2.9    95      6.3   904.7    0.00     695    86.2
 210   10:00   84.4    37    2.1    84      7.1   904.7    0.00     704    86.2
 210   10:10   84.6    37    3.4    79      8.5   904.6    0.00     699    86.2
 210   10:20   84.6    37    3.8    83      9.2   904.5    0.00     705    86.2
 210   10:30   84.2    37    4.6    94     10.3   904.4    0.00     717    86.1
 210   10:40   84.8    36    4.2   113      9.7   904.3    0.00     787    86.1
 210   10:50   86.0    34    2.4    63      5.6   904.2    0.00     736    86.0
 210   11:00   86.3    34    3.3    65      7.4   904.0    0.00     730    86.0
 210   11:10   86.5    32    3.4   107      7.6   903.8    0.00     735    86.0
 210   11:20   86.9    31    3.5    70      7.8   903.6    0.00     779    86.0
 210   11:30   87.9    30    3.6   360      6.9   903.6    0.00     588    86.0
 210   11:40   87.7    29    4.6   344      9.3   903.5    0.00     615    85.9
 210   11:50   87.8    28    3.6   331      9.2   903.4    0.00     594    86.0
 210   12:00   88.2    28    3.8   322     10.1   903.3    0.00     681    86.0
 210   12:10   89.5    28    2.9     5      8.7   903.2    0.00     701    86.0
 210   12:20   87.7    30    5.5   287     13.7   903.1    0.00     243    86.0
 210   12:30   87.2    30    4.2   294     10.6   903.0    0.00     507    86.0
 210   12:40   88.4    28    3.3    21      7.5   902.9    0.00     183    86.1
 210   12:50   88.1    29    3.6     4      9.2   902.7    0.00     260    86.1
 210   13:00   88.6    28    5.1     4     11.2   902.6    0.00     481    86.1
 210   13:10   90.6    25    3.3    37     11.6   902.5    0.00     784    86.2
 210   13:20   90.7    25    6.3   344     13.0   902.5    0.00     808    86.2
 210   13:30   91.7    25    3.3    52     11.0   902.4    0.00     604    86.3
 210   13:40   91.2    24    5.3    30     13.1   902.3    0.00     225    86.4
 210   13:50   90.3    24    6.6    16     17.8   902.2    0.00     614    86.4
 210   14:00   91.8    22    5.8    12     13.7   902.1    0.00     397    86.5
 210   14:10   91.0    22    6.8     6     14.6   902.0    0.00     546    86.5
 210   14:20   91.3    22    8.2   357     18.8   901.8    0.00     618    86.6
 210   14:30   92.3    21    7.7    11     18.5   901.7    0.00     627    86.6
 210   14:40   92.4    21    5.0   354     11.5   901.7    0.00     572    86.7
 210   14:50   92.4    21    6.7   344     15.1   901.5    0.00     549    86.7

Return to Beatty, Nevada graphs page.


Western Regional Climate Center,wrcc@dri.edu